Rogue Valley International Medford Airport
KMFR : rendu visible

Aérodrome :











RETROUVEZ-NOUS SUR...

 
LOGIN :

S'inscrire | Disclaimer

   EN    FR    IT 

 









Légende :    VFR   VFR Marginal   IFR   IFR Intensif   IFR Très Intensif
Visi : 
Plafond : 
>= 8 km
>= 3000ft
5 à 8 km
1000 à 3000 ft
1500m à 5 km
500 à 1000 ft
800 à 1500m
200 à 500 ft
< 800m
< 200 ft
Symboles :   Orages  Brouillard  Fortes neiges  Fortes précipitations  Vent > 20 kt






- Altitude de l'aérodrome : 1335 ft
- Code IATA : MFR


KMFR - Rogue Valley International Medford

DERNIER METAR :
  • 290631Z AUTO 00000KT 10SM -RA BKN023 OVC032 08/06 A3004 RMK AO2 P0000 T00830061

METARs EXPIRÉS :
  • 290601Z AUTO 02004KT 10SM -RA SCT025 OVC032 08/07 A3004 RMK AO2 P0000 T00830067
  • 290553Z AUTO 03005KT 10SM -RA FEW010 BKN025 OVC032 09/07 A3004 RMK AO2 SLP173 P0001 60008 T00890067 10122 20089 51008
  • 290453Z AUTO 08003KT 10SM -RA FEW017 OVC026 09/07 A3003 RMK AO2 SLP172 P0004 T00940072
  • 290415Z AUTO 02004KT 10SM -RA SCT026 BKN031 OVC038 09/07 A3003 RMK AO2 P0003 T00940072
  • 290353Z AUTO 22003KT 5SM RA BR BKN027 OVC038 09/07 A3002 RMK AO2 RAE0254B43 SLP169 P0000 T00940072
  • 290345Z 24003KT 10SM -RA BKN029 OVC035 10/07 A3002 RMK AO2 RAE0254B43 P0000 T01000072

TAF KMFR
Valide du 29 à 06h jusqu'au 30 à 06h UTC


290535Z 2906/3006 VRB03KT P6SM -SHRA FEW015 BKN025 OVC040
FM291500 26003KT P6SM -RA BKN025 OVC040
FM292100 28007KT P6SM -SHRA SCT025 OVC040



MET'MAP, la Météo Aéronautique d'un coup d'oeil ! - Copyright ORBIFLY Décembre 2007 - Disclaimer

ORBIFLY MET'MAP TEAM :

Programmation & Développement : Alexandra Zaïnal
Sur une idée originale de : Baudouin d'Aumeries
Assistance à la programmation : Marc-Olivier Méhu
Soutien technique & logistique : Manuel Goepfert

Contact : metmap@orbifly.com




SOURCES & CREDITS :

   NOAA       Earth
Advisory